sensor_id;sensor_type;location;lat;lon;timestamp;P1;durP1;ratioP1;P2;durP2;ratioP2
60233;SDS011;49514;43.538;-5.708;2023-06-10T06:21:25;12.23;;;5.15;;
60233;SDS011;49514;43.538;-5.708;2023-06-10T13:44:41;0.98;;;0.47;;
60233;SDS011;49514;43.538;-5.708;2023-06-10T13:47:07;1.25;;;0.45;;
60233;SDS011;49514;43.538;-5.708;2023-06-10T13:49:34;0.80;;;0.50;;
60233;SDS011;49514;43.538;-5.708;2023-06-10T13:52:02;2.72;;;0.73;;
60233;SDS011;49514;43.538;-5.708;2023-06-10T13:54:29;1.00;;;0.40;;
60233;SDS011;49514;43.538;-5.708;2023-06-10T13:56:56;0.82;;;0.30;;
60233;SDS011;49514;43.538;-5.708;2023-06-10T13:59:22;3.15;;;0.60;;
60233;SDS011;49514;43.538;-5.708;2023-06-10T14:01:49;1.55;;;0.30;;
60233;SDS011;49514;43.538;-5.708;2023-06-10T14:04:16;0.98;;;0.40;;
60233;SDS011;49514;43.538;-5.708;2023-06-10T14:06:43;1.42;;;0.50;;
60233;SDS011;49514;43.538;-5.708;2023-06-10T14:09:12;1.25;;;0.40;;
60233;SDS011;49514;43.538;-5.708;2023-06-10T14:11:39;1.38;;;0.50;;
60233;SDS011;49514;43.538;-5.708;2023-06-10T14:14:07;0.73;;;0.30;;
60233;SDS011;49514;43.538;-5.708;2023-06-10T14:16:34;1.30;;;0.47;;
60233;SDS011;49514;43.538;-5.708;2023-06-10T14:19:01;1.80;;;0.50;;
60233;SDS011;49514;43.538;-5.708;2023-06-10T14:21:27;1.50;;;0.40;;
60233;SDS011;49514;43.538;-5.708;2023-06-10T14:50:49;0.80;;;0.50;;
60233;SDS011;49514;43.538;-5.708;2023-06-10T14:55:47;1.52;;;0.52;;
60233;SDS011;49514;43.538;-5.708;2023-06-10T15:27:39;2.53;;;0.88;;
60233;SDS011;49514;43.538;-5.708;2023-06-10T15:30:06;2.42;;;0.70;;
60233;SDS011;49514;43.538;-5.708;2023-06-10T15:32:34;1.42;;;0.60;;
60233;SDS011;49514;43.538;-5.708;2023-06-10T15:35:01;4.47;;;0.80;;
60233;SDS011;49514;43.538;-5.708;2023-06-10T15:37:29;2.83;;;0.70;;
60233;SDS011;49514;43.538;-5.708;2023-06-10T15:39:56;2.92;;;0.80;;
60233;SDS011;49514;43.538;-5.708;2023-06-10T15:42:25;0.52;;;0.35;;
60233;SDS011;49514;43.538;-5.708;2023-06-10T15:44:53;1.58;;;0.70;;
60233;SDS011;49514;43.538;-5.708;2023-06-10T15:47:20;1.15;;;0.43;;
60233;SDS011;49514;43.538;-5.708;2023-06-10T15:49:47;0.82;;;0.43;;
60233;SDS011;49514;43.538;-5.708;2023-06-10T15:52:13;2.90;;;0.65;;
60233;SDS011;49514;43.538;-5.708;2023-06-10T15:54:40;1.00;;;0.50;;
60233;SDS011;49514;43.538;-5.708;2023-06-10T15:57:07;1.83;;;0.80;;
60233;SDS011;49514;43.538;-5.708;2023-06-10T15:59:34;1.60;;;0.57;;
60233;SDS011;49514;43.538;-5.708;2023-06-10T16:02:01;1.80;;;0.50;;
60233;SDS011;49514;43.538;-5.708;2023-06-10T16:04:29;1.42;;;0.70;;
60233;SDS011;49514;43.538;-5.708;2023-06-10T16:06:56;2.20;;;0.55;;
60233;SDS011;49514;43.538;-5.708;2023-06-10T16:09:23;1.83;;;0.60;;
60233;SDS011;49514;43.538;-5.708;2023-06-10T16:11:50;1.00;;;0.60;;
60233;SDS011;49514;43.538;-5.708;2023-06-10T16:14:17;1.92;;;0.40;;
60233;SDS011;49514;43.538;-5.708;2023-06-10T16:26:33;1.15;;;0.47;;
60233;SDS011;49514;43.538;-5.708;2023-06-10T16:29:00;6.10;;;0.80;;
60233;SDS011;49514;43.538;-5.708;2023-06-10T16:31:27;1.98;;;0.73;;
60233;SDS011;49514;43.538;-5.708;2023-06-10T16:33:54;1.55;;;0.60;;
60233;SDS011;49514;43.538;-5.708;2023-06-10T16:38:47;1.60;;;0.80;;
60233;SDS011;49514;43.538;-5.708;2023-06-10T16:41:13;4.68;;;0.80;;
60233;SDS011;49514;43.538;-5.708;2023-06-10T16:43:41;3.47;;;0.80;;
60233;SDS011;49514;43.538;-5.708;2023-06-10T16:46:07;2.92;;;0.65;;
60233;SDS011;49514;43.538;-5.708;2023-06-10T16:48:34;1.80;;;0.50;;
60233;SDS011;49514;43.538;-5.708;2023-06-10T16:51:01;3.50;;;0.55;;
60233;SDS011;49514;43.538;-5.708;2023-06-10T16:53:27;2.70;;;0.50;;
60233;SDS011;49514;43.538;-5.708;2023-06-10T16:55:54;0.93;;;0.50;;
60233;SDS011;49514;43.538;-5.708;2023-06-10T16:58:21;3.03;;;0.70;;
60233;SDS011;49514;43.538;-5.708;2023-06-10T17:00:48;1.08;;;0.40;;
60233;SDS011;49514;43.538;-5.708;2023-06-10T17:03:15;1.20;;;0.50;;
60233;SDS011;49514;43.538;-5.708;2023-06-10T17:05:42;2.15;;;0.40;;
60233;SDS011;49514;43.538;-5.708;2023-06-10T17:08:09;2.17;;;0.40;;
60233;SDS011;49514;43.538;-5.708;2023-06-10T17:10:35;1.33;;;0.30;;
60233;SDS011;49514;43.538;-5.708;2023-06-10T17:13:02;3.08;;;0.70;;
60233;SDS011;49514;43.538;-5.708;2023-06-10T17:15:29;1.75;;;0.60;;
60233;SDS011;49514;43.538;-5.708;2023-06-10T17:17:56;2.78;;;0.73;;
60233;SDS011;49514;43.538;-5.708;2023-06-10T17:20:22;1.38;;;0.60;;
60233;SDS011;49514;43.538;-5.708;2023-06-10T17:22:49;3.47;;;0.60;;
60233;SDS011;49514;43.538;-5.708;2023-06-10T17:25:16;1.63;;;0.40;;
60233;SDS011;49514;43.538;-5.708;2023-06-10T17:27:43;1.80;;;0.73;;
60233;SDS011;49514;43.538;-5.708;2023-06-10T17:30:09;1.70;;;0.50;;
60233;SDS011;49514;43.538;-5.708;2023-06-10T17:32:37;1.10;;;0.65;;
60233;SDS011;49514;43.538;-5.708;2023-06-10T17:35:06;1.25;;;0.45;;
60233;SDS011;49514;43.538;-5.708;2023-06-10T17:37:34;1.20;;;0.45;;
60233;SDS011;49514;43.538;-5.708;2023-06-10T17:40:00;1.95;;;0.60;;
60233;SDS011;49514;43.538;-5.708;2023-06-10T17:42:27;1.52;;;0.50;;
60233;SDS011;49514;43.538;-5.708;2023-06-10T17:44:54;0.95;;;0.68;;
60233;SDS011;49514;43.538;-5.708;2023-06-10T17:47:21;2.13;;;0.60;;
60233;SDS011;49514;43.538;-5.708;2023-06-10T17:49:48;0.93;;;0.40;;
60233;SDS011;49514;43.538;-5.708;2023-06-10T17:52:15;1.13;;;0.63;;
60233;SDS011;49514;43.538;-5.708;2023-06-10T17:54:42;0.93;;;0.40;;
60233;SDS011;49514;43.538;-5.708;2023-06-10T18:02:02;1.15;;;0.50;;
60233;SDS011;49514;43.538;-5.708;2023-06-10T18:04:30;0.95;;;0.45;;
60233;SDS011;49514;43.538;-5.708;2023-06-10T18:06:57;1.38;;;0.40;;
60233;SDS011;49514;43.538;-5.708;2023-06-10T18:09:23;0.75;;;0.40;;
60233;SDS011;49514;43.538;-5.708;2023-06-10T18:14:18;2.20;;;1.20;;
60233;SDS011;49514;43.538;-5.708;2023-06-10T18:16:45;2.03;;;0.85;;
60233;SDS011;49514;43.538;-5.708;2023-06-10T18:19:12;1.42;;;0.50;;
60233;SDS011;49514;43.538;-5.708;2023-06-10T18:21:40;1.98;;;0.40;;
60233;SDS011;49514;43.538;-5.708;2023-06-10T18:24:07;1.60;;;0.63;;
60233;SDS011;49514;43.538;-5.708;2023-06-10T18:26:34;1.77;;;0.40;;
60233;SDS011;49514;43.538;-5.708;2023-06-10T18:29:01;0.88;;;0.40;;
60233;SDS011;49514;43.538;-5.708;2023-06-10T18:31:28;0.38;;;0.32;;
60233;SDS011;49514;43.538;-5.708;2023-06-10T18:33:54;1.67;;;0.40;;
60233;SDS011;49514;43.538;-5.708;2023-06-10T18:36:21;1.17;;;0.40;;
60233;SDS011;49514;43.538;-5.708;2023-06-10T18:38:48;1.25;;;0.30;;
60233;SDS011;49514;43.538;-5.708;2023-06-10T18:41:16;0.75;;;0.30;;
60233;SDS011;49514;43.538;-5.708;2023-06-10T18:43:43;2.47;;;0.50;;
60233;SDS011;49514;43.538;-5.708;2023-06-10T18:46:09;0.82;;;0.60;;
60233;SDS011;49514;43.538;-5.708;2023-06-10T18:48:36;1.05;;;0.50;;
60233;SDS011;49514;43.538;-5.708;2023-06-10T18:51:05;1.23;;;0.50;;
60233;SDS011;49514;43.538;-5.708;2023-06-10T18:53:32;2.17;;;0.50;;
60233;SDS011;49514;43.538;-5.708;2023-06-10T18:55:58;2.08;;;0.45;;
60233;SDS011;49514;43.538;-5.708;2023-06-10T18:58:30;0.47;;;0.40;;
60233;SDS011;49514;43.538;-5.708;2023-06-10T19:01:01;0.50;;;0.40;;
60233;SDS011;49514;43.538;-5.708;2023-06-10T19:03:29;13.48;;;2.33;;
60233;SDS011;49514;43.538;-5.708;2023-06-10T19:05:56;2.28;;;0.65;;
60233;SDS011;49514;43.538;-5.708;2023-06-10T19:08:26;1.20;;;0.50;;
60233;SDS011;49514;43.538;-5.708;2023-06-10T19:10:53;3.20;;;0.70;;
60233;SDS011;49514;43.538;-5.708;2023-06-10T19:13:22;1.55;;;0.80;;
60233;SDS011;49514;43.538;-5.708;2023-06-10T19:15:50;1.52;;;0.47;;
60233;SDS011;49514;43.538;-5.708;2023-06-10T19:18:16;1.50;;;0.80;;
60233;SDS011;49514;43.538;-5.708;2023-06-10T19:20:43;2.28;;;0.82;;
60233;SDS011;49514;43.538;-5.708;2023-06-10T19:23:10;1.15;;;0.40;;
60233;SDS011;49514;43.538;-5.708;2023-06-10T19:25:37;1.35;;;0.47;;
60233;SDS011;49514;43.538;-5.708;2023-06-10T19:28:06;1.95;;;0.52;;
60233;SDS011;49514;43.538;-5.708;2023-06-10T19:30:34;0.75;;;0.50;;
60233;SDS011;49514;43.538;-5.708;2023-06-10T19:33:01;5.00;;;0.57;;
60233;SDS011;49514;43.538;-5.708;2023-06-10T19:35:28;2.17;;;0.75;;
60233;SDS011;49514;43.538;-5.708;2023-06-10T19:37:55;1.48;;;0.60;;
60233;SDS011;49514;43.538;-5.708;2023-06-10T19:40:22;2.42;;;0.90;;
60233;SDS011;49514;43.538;-5.708;2023-06-10T19:42:49;2.25;;;0.80;;
60233;SDS011;49514;43.538;-5.708;2023-06-10T19:45:16;1.90;;;0.60;;
60233;SDS011;49514;43.538;-5.708;2023-06-10T19:47:43;1.58;;;0.77;;
60233;SDS011;49514;43.538;-5.708;2023-06-10T19:50:10;0.60;;;0.50;;
60233;SDS011;49514;43.538;-5.708;2023-06-10T19:52:38;2.92;;;1.00;;
60233;SDS011;49514;43.538;-5.708;2023-06-10T19:55:06;2.65;;;0.90;;
60233;SDS011;49514;43.538;-5.708;2023-06-10T19:57:33;1.42;;;0.90;;
60233;SDS011;49514;43.538;-5.708;2023-06-10T19:59:59;1.83;;;0.77;;
60233;SDS011;49514;43.538;-5.708;2023-06-10T20:02:26;2.75;;;1.00;;
60233;SDS011;49514;43.538;-5.708;2023-06-10T20:04:53;2.63;;;0.80;;
60233;SDS011;49514;43.538;-5.708;2023-06-10T20:07:20;5.03;;;1.25;;
60233;SDS011;49514;43.538;-5.708;2023-06-10T20:09:46;4.65;;;1.02;;
60233;SDS011;49514;43.538;-5.708;2023-06-10T20:12:13;3.38;;;1.20;;
60233;SDS011;49514;43.538;-5.708;2023-06-10T20:14:41;2.55;;;1.20;;
60233;SDS011;49514;43.538;-5.708;2023-06-10T20:17:08;3.42;;;1.55;;
60233;SDS011;49514;43.538;-5.708;2023-06-10T20:19:35;4.85;;;1.25;;
60233;SDS011;49514;43.538;-5.708;2023-06-10T20:22:02;2.67;;;1.20;;
60233;SDS011;49514;43.538;-5.708;2023-06-10T20:29:23;2.92;;;1.40;;
60233;SDS011;49514;43.538;-5.708;2023-06-10T20:31:53;3.13;;;1.48;;
60233;SDS011;49514;43.538;-5.708;2023-06-10T20:34:20;2.55;;;1.25;;
60233;SDS011;49514;43.538;-5.708;2023-06-10T20:36:47;2.30;;;1.30;;
60233;SDS011;49514;43.538;-5.708;2023-06-10T20:39:14;2.65;;;1.25;;
60233;SDS011;49514;43.538;-5.708;2023-06-10T20:41:40;3.05;;;1.20;;
60233;SDS011;49514;43.538;-5.708;2023-06-10T20:44:07;4.40;;;1.20;;
60233;SDS011;49514;43.538;-5.708;2023-06-10T20:46:34;2.30;;;1.30;;
60233;SDS011;49514;43.538;-5.708;2023-06-10T20:49:01;1.80;;;1.23;;
60233;SDS011;49514;43.538;-5.708;2023-06-10T20:51:29;3.47;;;1.50;;
60233;SDS011;49514;43.538;-5.708;2023-06-10T20:53:56;3.13;;;1.10;;
60233;SDS011;49514;43.538;-5.708;2023-06-10T20:56:23;1.98;;;1.10;;
60233;SDS011;49514;43.538;-5.708;2023-06-10T20:58:50;3.40;;;1.30;;
60233;SDS011;49514;43.538;-5.708;2023-06-10T21:01:17;2.38;;;1.30;;
60233;SDS011;49514;43.538;-5.708;2023-06-10T21:03:44;3.42;;;1.05;;
60233;SDS011;49514;43.538;-5.708;2023-06-10T21:06:12;2.60;;;1.10;;
60233;SDS011;49514;43.538;-5.708;2023-06-10T21:08:39;2.30;;;0.90;;
60233;SDS011;49514;43.538;-5.708;2023-06-10T21:11:06;1.88;;;1.10;;
60233;SDS011;49514;43.538;-5.708;2023-06-10T21:13:33;2.10;;;1.05;;
60233;SDS011;49514;43.538;-5.708;2023-06-10T21:16:01;1.83;;;1.00;;
60233;SDS011;49514;43.538;-5.708;2023-06-10T21:18:28;2.30;;;1.05;;
60233;SDS011;49514;43.538;-5.708;2023-06-10T21:20:57;3.80;;;1.52;;
60233;SDS011;49514;43.538;-5.708;2023-06-10T21:23:24;2.03;;;1.30;;
60233;SDS011;49514;43.538;-5.708;2023-06-10T21:25:52;2.22;;;1.05;;
60233;SDS011;49514;43.538;-5.708;2023-06-10T21:28:19;5.32;;;1.02;;
60233;SDS011;49514;43.538;-5.708;2023-06-10T21:30:46;2.05;;;1.10;;
60233;SDS011;49514;43.538;-5.708;2023-06-10T21:33:15;1.58;;;1.20;;
60233;SDS011;49514;43.538;-5.708;2023-06-10T21:35:42;4.95;;;1.50;;
60233;SDS011;49514;43.538;-5.708;2023-06-10T21:38:10;1.77;;;1.20;;
60233;SDS011;49514;43.538;-5.708;2023-06-10T21:40:38;1.92;;;1.20;;
60233;SDS011;49514;43.538;-5.708;2023-06-10T21:43:04;5.15;;;1.40;;
60233;SDS011;49514;43.538;-5.708;2023-06-10T21:45:32;3.40;;;1.40;;
60233;SDS011;49514;43.538;-5.708;2023-06-10T21:48:00;2.92;;;1.30;;
60233;SDS011;49514;43.538;-5.708;2023-06-10T21:50:26;2.92;;;1.55;;
60233;SDS011;49514;43.538;-5.708;2023-06-10T21:52:53;3.83;;;1.50;;
60233;SDS011;49514;43.538;-5.708;2023-06-10T21:55:20;5.70;;;1.83;;
60233;SDS011;49514;43.538;-5.708;2023-06-10T21:57:47;3.08;;;1.40;;
60233;SDS011;49514;43.538;-5.708;2023-06-10T22:00:15;3.13;;;1.48;;
60233;SDS011;49514;43.538;-5.708;2023-06-10T22:02:43;5.45;;;1.50;;
60233;SDS011;49514;43.538;-5.708;2023-06-10T22:05:10;2.67;;;1.42;;
60233;SDS011;49514;43.538;-5.708;2023-06-10T22:07:36;3.92;;;1.50;;
60233;SDS011;49514;43.538;-5.708;2023-06-10T22:10:05;4.75;;;1.35;;
60233;SDS011;49514;43.538;-5.708;2023-06-10T22:12:32;4.60;;;1.60;;
60233;SDS011;49514;43.538;-5.708;2023-06-10T22:14:59;3.35;;;1.40;;
60233;SDS011;49514;43.538;-5.708;2023-06-10T22:17:26;3.78;;;1.60;;
60233;SDS011;49514;43.538;-5.708;2023-06-10T22:19:53;4.10;;;1.77;;
60233;SDS011;49514;43.538;-5.708;2023-06-10T22:22:20;3.63;;;1.50;;
60233;SDS011;49514;43.538;-5.708;2023-06-10T22:24:53;4.05;;;1.40;;
60233;SDS011;49514;43.538;-5.708;2023-06-10T22:27:21;2.97;;;1.50;;
60233;SDS011;49514;43.538;-5.708;2023-06-10T22:29:48;2.78;;;1.50;;
60233;SDS011;49514;43.538;-5.708;2023-06-10T22:32:14;2.28;;;1.20;;
60233;SDS011;49514;43.538;-5.708;2023-06-10T22:34:43;2.40;;;1.30;;
60233;SDS011;49514;43.538;-5.708;2023-06-10T22:37:12;3.50;;;1.67;;
60233;SDS011;49514;43.538;-5.708;2023-06-10T22:39:39;2.53;;;1.42;;
60233;SDS011;49514;43.538;-5.708;2023-06-10T22:42:06;3.13;;;1.60;;
60233;SDS011;49514;43.538;-5.708;2023-06-10T22:44:35;2.45;;;1.33;;
60233;SDS011;49514;43.538;-5.708;2023-06-10T22:47:02;2.97;;;1.15;;
60233;SDS011;49514;43.538;-5.708;2023-06-10T22:49:29;2.47;;;1.13;;
60233;SDS011;49514;43.538;-5.708;2023-06-10T22:51:57;3.45;;;1.52;;
60233;SDS011;49514;43.538;-5.708;2023-06-10T22:54:23;2.35;;;1.35;;
60233;SDS011;49514;43.538;-5.708;2023-06-10T22:56:53;2.10;;;1.15;;
60233;SDS011;49514;43.538;-5.708;2023-06-10T22:59:20;2.88;;;1.10;;
60233;SDS011;49514;43.538;-5.708;2023-06-10T23:01:47;3.38;;;1.00;;
60233;SDS011;49514;43.538;-5.708;2023-06-10T23:04:14;2.05;;;1.10;;
60233;SDS011;49514;43.538;-5.708;2023-06-10T23:06:41;1.33;;;1.02;;
60233;SDS011;49514;43.538;-5.708;2023-06-10T23:09:08;3.30;;;1.20;;
60233;SDS011;49514;43.538;-5.708;2023-06-10T23:11:36;2.30;;;1.10;;
60233;SDS011;49514;43.538;-5.708;2023-06-10T23:14:04;2.53;;;0.90;;
60233;SDS011;49514;43.538;-5.708;2023-06-10T23:16:31;2.25;;;1.30;;
60233;SDS011;49514;43.538;-5.708;2023-06-10T23:18:58;2.13;;;1.10;;
60233;SDS011;49514;43.538;-5.708;2023-06-10T23:21:26;3.78;;;1.33;;
60233;SDS011;49514;43.538;-5.708;2023-06-10T23:23:59;2.65;;;1.30;;
60233;SDS011;49514;43.538;-5.708;2023-06-10T23:26:26;3.10;;;1.50;;
60233;SDS011;49514;43.538;-5.708;2023-06-10T23:28:53;1.30;;;1.00;;
60233;SDS011;49514;43.538;-5.708;2023-06-10T23:31:20;2.90;;;1.08;;
60233;SDS011;49514;43.538;-5.708;2023-06-10T23:33:47;2.50;;;1.20;;
60233;SDS011;49514;43.538;-5.708;2023-06-10T23:36:14;2.17;;;1.00;;
60233;SDS011;49514;43.538;-5.708;2023-06-10T23:38:42;1.83;;;1.20;;
60233;SDS011;49514;43.538;-5.708;2023-06-10T23:41:09;1.80;;;1.00;;
60233;SDS011;49514;43.538;-5.708;2023-06-10T23:43:36;2.00;;;1.10;;
60233;SDS011;49514;43.538;-5.708;2023-06-10T23:46:03;3.13;;;1.20;;
60233;SDS011;49514;43.538;-5.708;2023-06-10T23:48:29;3.00;;;1.20;;
60233;SDS011;49514;43.538;-5.708;2023-06-10T23:50:56;2.63;;;1.17;;
60233;SDS011;49514;43.538;-5.708;2023-06-10T23:53:25;3.42;;;1.13;;
60233;SDS011;49514;43.538;-5.708;2023-06-10T23:55:53;1.43;;;1.10;;
60233;SDS011;49514;43.538;-5.708;2023-06-10T23:58:20;2.55;;;1.27;;
